Mazi Alex Otti Heliport

NG-0010 · Abia, Nigeria

METAR history NG-0010 · Mazi Alex Otti Heliport

Below you see METARs of the last few days. Select a year to browse through older METARs, from the year 2007 onwards.

May 22, 2024

Time Code Weather Temp. Visibility Ceiling Wind METAR/SPECI
19:00
V
27 °C 10 km+ - 360° 360° 0 kt METAR DNIM 221800Z 00000KT 9999 SCT010 27/24 Q1011
18:00
M
27 °C 10 km+ 1,100 ft 360° 360° 0 kt METAR DNIM 221700Z 00000KT 9999 BKN011 27/23 Q1011
16:00
M
28 °C 10 km+ 1,100 ft 360° 360° 0 kt METAR DNIM 221500Z 00000KT 9999 BKN011 28/24 Q1011

May 20, 2024

Time Code Weather Temp. Visibility Ceiling Wind METAR/SPECI
15:00
M
33 °C 10 km+ 1,300 ft 260° 260° 8 kt METAR DNIM 201400Z 26008KT 9999 BKN013 33/26 Q1010
14:00
M
33 °C 10 km+ 1,300 ft 240° 240° 14 kt METAR DNIM 201300Z 24014KT 9999 BKN013 33/25 Q1011
12:00
M
32 °C 10 km+ 1,300 ft 190° 190° 12 kt METAR DNIM 201100Z 19012KT 9999 BKN013 32/26 Q1012
11:00
M
30 °C 10 km+ 1,200 ft 180° 180° 10 kt METAR DNIM 201000Z 18010KT 9999 BKN012 30/26 Q1013
09:00
M
28 °C 10 km+ 1,100 ft 360° 360° 0 kt METAR DNIM 200800Z 00000KT 9999 BKN011 28/27 Q1013
07:00
M
27 °C 10 km+ 1,100 ft 360° 360° 0 kt METAR DNIM 200600Z 00000KT 9999 BKN011 FEW019CB[N-S] 27/26 Q1012
Report a change